sensor_id;sensor_type;location;lat;lon;timestamp;P1;durP1;ratioP1;P2;durP2;ratioP2
39822;SDS011;25499;53.958;10.970;2023-08-07T05:30:15;3.92;;;1.50;;
39822;SDS011;25499;53.958;10.970;2023-08-07T05:32:42;5.25;;;1.60;;
39822;SDS011;25499;53.958;10.970;2023-08-07T05:35:09;6.53;;;1.98;;
39822;SDS011;25499;53.958;10.970;2023-08-07T05:37:36;5.72;;;1.52;;
39822;SDS011;25499;53.958;10.970;2023-08-07T05:40:03;5.20;;;2.00;;
39822;SDS011;25499;53.958;10.970;2023-08-07T05:42:31;5.68;;;1.98;;
39822;SDS011;25499;53.958;10.970;2023-08-07T05:44:58;11.00;;;2.42;;
39822;SDS011;25499;53.958;10.970;2023-08-07T05:47:26;7.82;;;2.00;;
39822;SDS011;25499;53.958;10.970;2023-08-07T05:49:52;5.78;;;1.60;;
39822;SDS011;25499;53.958;10.970;2023-08-07T05:52:19;7.78;;;2.30;;
39822;SDS011;25499;53.958;10.970;2023-08-07T05:54:46;5.18;;;1.80;;
39822;SDS011;25499;53.958;10.970;2023-08-07T05:57:12;5.47;;;1.60;;
39822;SDS011;25499;53.958;10.970;2023-08-07T05:59:39;7.03;;;1.60;;
39822;SDS011;25499;53.958;10.970;2023-08-07T06:02:06;7.45;;;1.73;;
39822;SDS011;25499;53.958;10.970;2023-08-07T06:04:35;4.43;;;1.75;;
39822;SDS011;25499;53.958;10.970;2023-08-07T06:07:02;7.25;;;1.58;;
39822;SDS011;25499;53.958;10.970;2023-08-07T06:09:30;7.28;;;1.95;;
39822;SDS011;25499;53.958;10.970;2023-08-07T06:11:56;5.55;;;1.88;;
39822;SDS011;25499;53.958;10.970;2023-08-07T06:14:23;6.45;;;1.70;;
39822;SDS011;25499;53.958;10.970;2023-08-07T06:16:50;6.07;;;1.58;;
39822;SDS011;25499;53.958;10.970;2023-08-07T06:19:17;10.57;;;2.47;;
39822;SDS011;25499;53.958;10.970;2023-08-07T06:21:46;7.40;;;1.50;;
39822;SDS011;25499;53.958;10.970;2023-08-07T06:24:13;6.28;;;1.92;;
39822;SDS011;25499;53.958;10.970;2023-08-07T06:26:40;5.85;;;1.85;;
39822;SDS011;25499;53.958;10.970;2023-08-07T06:29:06;6.50;;;1.90;;
39822;SDS011;25499;53.958;10.970;2023-08-07T06:31:33;7.95;;;1.60;;
39822;SDS011;25499;53.958;10.970;2023-08-07T06:34:00;12.45;;;2.20;;
39822;SDS011;25499;53.958;10.970;2023-08-07T06:36:27;7.43;;;2.20;;
39822;SDS011;25499;53.958;10.970;2023-08-07T06:38:55;7.68;;;2.22;;
39822;SDS011;25499;53.958;10.970;2023-08-07T06:41:22;9.48;;;2.08;;
39822;SDS011;25499;53.958;10.970;2023-08-07T06:43:48;11.43;;;2.30;;
39822;SDS011;25499;53.958;10.970;2023-08-07T06:46:17;16.98;;;2.05;;
39822;SDS011;25499;53.958;10.970;2023-08-07T06:48:44;10.02;;;2.00;;
39822;SDS011;25499;53.958;10.970;2023-08-07T06:51:11;10.25;;;2.13;;
39822;SDS011;25499;53.958;10.970;2023-08-07T06:53:39;9.23;;;2.30;;
39822;SDS011;25499;53.958;10.970;2023-08-07T06:56:08;12.13;;;2.35;;
39822;SDS011;25499;53.958;10.970;2023-08-07T06:58:35;7.00;;;1.90;;
39822;SDS011;25499;53.958;10.970;2023-08-07T07:01:01;10.57;;;2.10;;
39822;SDS011;25499;53.958;10.970;2023-08-07T07:03:28;12.27;;;2.13;;
39822;SDS011;25499;53.958;10.970;2023-08-07T07:05:55;10.70;;;2.30;;
39822;SDS011;25499;53.958;10.970;2023-08-07T07:08:22;9.20;;;2.17;;
39822;SDS011;25499;53.958;10.970;2023-08-07T07:10:49;7.97;;;2.03;;
39822;SDS011;25499;53.958;10.970;2023-08-07T07:13:17;10.27;;;2.20;;
39822;SDS011;25499;53.958;10.970;2023-08-07T07:15:43;10.05;;;2.30;;
39822;SDS011;25499;53.958;10.970;2023-08-07T07:18:10;12.02;;;2.45;;
39822;SDS011;25499;53.958;10.970;2023-08-07T07:20:37;9.82;;;2.80;;
39822;SDS011;25499;53.958;10.970;2023-08-07T07:23:05;12.93;;;2.22;;
39822;SDS011;25499;53.958;10.970;2023-08-07T07:25:32;11.57;;;2.50;;
39822;SDS011;25499;53.958;10.970;2023-08-07T07:27:58;10.05;;;2.13;;
39822;SDS011;25499;53.958;10.970;2023-08-07T07:30:26;12.00;;;2.58;;
39822;SDS011;25499;53.958;10.970;2023-08-07T07:32:53;12.02;;;2.40;;
39822;SDS011;25499;53.958;10.970;2023-08-07T07:35:20;10.13;;;2.35;;
39822;SDS011;25499;53.958;10.970;2023-08-07T07:37:46;12.32;;;2.40;;
39822;SDS011;25499;53.958;10.970;2023-08-07T07:40:13;6.95;;;2.58;;
39822;SDS011;25499;53.958;10.970;2023-08-07T07:42:41;8.25;;;2.22;;
39822;SDS011;25499;53.958;10.970;2023-08-07T07:45:08;10.18;;;2.70;;
39822;SDS011;25499;53.958;10.970;2023-08-07T07:47:36;9.90;;;2.53;;
39822;SDS011;25499;53.958;10.970;2023-08-07T07:50:06;10.18;;;2.22;;
39822;SDS011;25499;53.958;10.970;2023-08-07T07:52:34;10.93;;;2.90;;
39822;SDS011;25499;53.958;10.970;2023-08-07T07:55:01;11.40;;;2.50;;
39822;SDS011;25499;53.958;10.970;2023-08-07T07:57:29;10.32;;;2.55;;
39822;SDS011;25499;53.958;10.970;2023-08-07T07:59:56;11.02;;;2.58;;
39822;SDS011;25499;53.958;10.970;2023-08-07T08:02:22;14.18;;;2.40;;
39822;SDS011;25499;53.958;10.970;2023-08-07T08:04:51;16.52;;;2.97;;
39822;SDS011;25499;53.958;10.970;2023-08-07T08:07:18;17.25;;;3.28;;
39822;SDS011;25499;53.958;10.970;2023-08-07T08:09:45;16.52;;;2.88;;
39822;SDS011;25499;53.958;10.970;2023-08-07T08:12:12;13.88;;;3.15;;
39822;SDS011;25499;53.958;10.970;2023-08-07T08:14:39;19.05;;;3.00;;
39822;SDS011;25499;53.958;10.970;2023-08-07T08:17:05;11.98;;;2.60;;
39822;SDS011;25499;53.958;10.970;2023-08-07T08:19:32;9.48;;;2.70;;
39822;SDS011;25499;53.958;10.970;2023-08-07T08:22:00;11.95;;;2.70;;
39822;SDS011;25499;53.958;10.970;2023-08-07T08:24:27;11.95;;;3.10;;
39822;SDS011;25499;53.958;10.970;2023-08-07T08:26:54;19.27;;;2.90;;
39822;SDS011;25499;53.958;10.970;2023-08-07T08:29:20;11.50;;;2.80;;
39822;SDS011;25499;53.958;10.970;2023-08-07T08:31:48;17.35;;;3.05;;
39822;SDS011;25499;53.958;10.970;2023-08-07T08:34:16;16.42;;;3.05;;
39822;SDS011;25499;53.958;10.970;2023-08-07T08:36:43;12.57;;;2.72;;
39822;SDS011;25499;53.958;10.970;2023-08-07T08:39:11;15.90;;;3.10;;
39822;SDS011;25499;53.958;10.970;2023-08-07T08:41:38;9.82;;;3.30;;
39822;SDS011;25499;53.958;10.970;2023-08-07T08:44:06;12.02;;;2.95;;
39822;SDS011;25499;53.958;10.970;2023-08-07T08:46:33;13.38;;;2.85;;
39822;SDS011;25499;53.958;10.970;2023-08-07T08:49:01;18.85;;;3.10;;
39822;SDS011;25499;53.958;10.970;2023-08-07T08:51:30;14.23;;;2.85;;
39822;SDS011;25499;53.958;10.970;2023-08-07T08:54:02;13.32;;;3.20;;
39822;SDS011;25499;53.958;10.970;2023-08-07T08:56:31;12.63;;;2.38;;
39822;SDS011;25499;53.958;10.970;2023-08-07T08:58:59;11.32;;;2.55;;
39822;SDS011;25499;53.958;10.970;2023-08-07T09:01:28;14.38;;;2.78;;
39822;SDS011;25499;53.958;10.970;2023-08-07T09:07:18;12.68;;;2.60;;
39822;SDS011;25499;53.958;10.970;2023-08-07T09:09:47;14.15;;;3.03;;
39822;SDS011;25499;53.958;10.970;2023-08-07T09:12:20;11.25;;;2.95;;
39822;SDS011;25499;53.958;10.970;2023-08-07T09:14:50;13.63;;;2.95;;
39822;SDS011;25499;53.958;10.970;2023-08-07T09:17:24;13.50;;;3.20;;
39822;SDS011;25499;53.958;10.970;2023-08-07T09:19:54;16.60;;;2.70;;
39822;SDS011;25499;53.958;10.970;2023-08-07T09:22:21;13.32;;;2.70;;
39822;SDS011;25499;53.958;10.970;2023-08-07T09:24:48;11.27;;;2.65;;
39822;SDS011;25499;53.958;10.970;2023-08-07T09:27:14;12.88;;;2.72;;
39822;SDS011;25499;53.958;10.970;2023-08-07T09:29:43;15.63;;;2.65;;
39822;SDS011;25499;53.958;10.970;2023-08-07T09:32:11;11.73;;;2.58;;
39822;SDS011;25499;53.958;10.970;2023-08-07T09:34:39;19.02;;;2.95;;
39822;SDS011;25499;53.958;10.970;2023-08-07T09:37:07;14.40;;;2.90;;
39822;SDS011;25499;53.958;10.970;2023-08-07T09:39:34;10.50;;;2.38;;
39822;SDS011;25499;53.958;10.970;2023-08-07T09:42:01;15.70;;;3.03;;
39822;SDS011;25499;53.958;10.970;2023-08-07T09:44:35;15.18;;;2.80;;
39822;SDS011;25499;53.958;10.970;2023-08-07T09:47:13;12.85;;;2.95;;
39822;SDS011;25499;53.958;10.970;2023-08-07T09:52:08;15.68;;;4.47;;
39822;SDS011;25499;53.958;10.970;2023-08-07T09:54:36;9.68;;;3.38;;
39822;SDS011;25499;53.958;10.970;2023-08-07T09:57:03;14.57;;;4.05;;
39822;SDS011;25499;53.958;10.970;2023-08-07T09:59:31;22.35;;;4.60;;
39822;SDS011;25499;53.958;10.970;2023-08-07T10:01:59;14.35;;;3.17;;
39822;SDS011;25499;53.958;10.970;2023-08-07T10:04:27;11.70;;;3.90;;
39822;SDS011;25499;53.958;10.970;2023-08-07T10:06:54;17.60;;;3.17;;
39822;SDS011;25499;53.958;10.970;2023-08-07T10:09:22;15.25;;;5.50;;
39822;SDS011;25499;53.958;10.970;2023-08-07T10:11:49;14.45;;;6.10;;
39822;SDS011;25499;53.958;10.970;2023-08-07T10:14:17;10.52;;;4.20;;
39822;SDS011;25499;53.958;10.970;2023-08-07T10:16:44;11.25;;;3.42;;
39822;SDS011;25499;53.958;10.970;2023-08-07T10:19:14;14.35;;;5.57;;
39822;SDS011;25499;53.958;10.970;2023-08-07T10:21:42;16.13;;;3.60;;
39822;SDS011;25499;53.958;10.970;2023-08-07T10:24:10;18.85;;;6.43;;
39822;SDS011;25499;53.958;10.970;2023-08-07T10:26:38;19.73;;;4.40;;
39822;SDS011;25499;53.958;10.970;2023-08-07T10:29:09;16.95;;;4.38;;
39822;SDS011;25499;53.958;10.970;2023-08-07T10:31:39;19.02;;;5.05;;
39822;SDS011;25499;53.958;10.970;2023-08-07T10:34:08;23.77;;;8.30;;
39822;SDS011;25499;53.958;10.970;2023-08-07T10:36:36;12.63;;;4.28;;
39822;SDS011;25499;53.958;10.970;2023-08-07T10:39:06;15.13;;;4.82;;
39822;SDS011;25499;53.958;10.970;2023-08-07T10:41:39;18.02;;;4.63;;
39822;SDS011;25499;53.958;10.970;2023-08-07T10:44:16;13.10;;;3.92;;
39822;SDS011;25499;53.958;10.970;2023-08-07T10:52:09;17.42;;;3.40;;
39822;SDS011;25499;53.958;10.970;2023-08-07T10:54:38;17.80;;;4.07;;
39822;SDS011;25499;53.958;10.970;2023-08-07T10:59:37;17.00;;;2.88;;
39822;SDS011;25499;53.958;10.970;2023-08-07T11:02:04;12.30;;;2.70;;
39822;SDS011;25499;53.958;10.970;2023-08-07T11:04:37;8.57;;;2.75;;
39822;SDS011;25499;53.958;10.970;2023-08-07T11:07:05;11.63;;;2.10;;
39822;SDS011;25499;53.958;10.970;2023-08-07T11:09:34;11.18;;;2.65;;
39822;SDS011;25499;53.958;10.970;2023-08-07T11:17:35;6.20;;;1.90;;
39822;SDS011;25499;53.958;10.970;2023-08-07T11:20:02;16.55;;;2.60;;
39822;SDS011;25499;53.958;10.970;2023-08-07T11:22:30;11.25;;;2.40;;
39822;SDS011;25499;53.958;10.970;2023-08-07T11:24:59;12.70;;;2.47;;
39822;SDS011;25499;53.958;10.970;2023-08-07T11:27:25;12.93;;;2.42;;
39822;SDS011;25499;53.958;10.970;2023-08-07T11:29:52;14.25;;;2.60;;
39822;SDS011;25499;53.958;10.970;2023-08-07T11:32:20;12.02;;;2.40;;
39822;SDS011;25499;53.958;10.970;2023-08-07T11:34:48;13.50;;;2.60;;
39822;SDS011;25499;53.958;10.970;2023-08-07T11:37:15;8.95;;;2.40;;
39822;SDS011;25499;53.958;10.970;2023-08-07T11:39:42;11.93;;;2.30;;
39822;SDS011;25499;53.958;10.970;2023-08-07T11:42:11;14.05;;;2.00;;
39822;SDS011;25499;53.958;10.970;2023-08-07T11:44:40;6.53;;;2.17;;
39822;SDS011;25499;53.958;10.970;2023-08-07T11:47:07;12.75;;;1.95;;
39822;SDS011;25499;53.958;10.970;2023-08-07T11:49:35;9.48;;;2.35;;
39822;SDS011;25499;53.958;10.970;2023-08-07T11:52:01;8.60;;;2.30;;
39822;SDS011;25499;53.958;10.970;2023-08-07T11:54:28;9.48;;;1.88;;
39822;SDS011;25499;53.958;10.970;2023-08-07T11:56:55;13.07;;;1.80;;
39822;SDS011;25499;53.958;10.970;2023-08-07T11:59:23;9.30;;;1.90;;
39822;SDS011;25499;53.958;10.970;2023-08-07T12:01:50;13.10;;;1.88;;
39822;SDS011;25499;53.958;10.970;2023-08-07T12:04:17;6.60;;;2.10;;
39822;SDS011;25499;53.958;10.970;2023-08-07T12:06:52;10.05;;;2.13;;
39822;SDS011;25499;53.958;10.970;2023-08-07T12:09:20;10.35;;;2.40;;
39822;SDS011;25499;53.958;10.970;2023-08-07T12:11:46;8.50;;;2.03;;
39822;SDS011;25499;53.958;10.970;2023-08-07T12:14:13;5.57;;;1.65;;
39822;SDS011;25499;53.958;10.970;2023-08-07T12:16:44;9.98;;;1.60;;
39822;SDS011;25499;53.958;10.970;2023-08-07T12:19:11;10.52;;;2.08;;
39822;SDS011;25499;53.958;10.970;2023-08-07T12:21:39;9.43;;;2.35;;
39822;SDS011;25499;53.958;10.970;2023-08-07T12:24:06;7.97;;;2.00;;
39822;SDS011;25499;53.958;10.970;2023-08-07T12:26:33;10.88;;;2.08;;
39822;SDS011;25499;53.958;10.970;2023-08-07T12:29:00;7.18;;;1.88;;
39822;SDS011;25499;53.958;10.970;2023-08-07T12:31:27;10.45;;;1.88;;
39822;SDS011;25499;53.958;10.970;2023-08-07T12:33:55;10.02;;;1.88;;
39822;SDS011;25499;53.958;10.970;2023-08-07T12:36:22;6.38;;;1.63;;
39822;SDS011;25499;53.958;10.970;2023-08-07T12:38:49;8.13;;;2.08;;
39822;SDS011;25499;53.958;10.970;2023-08-07T12:41:16;9.73;;;1.90;;
39822;SDS011;25499;53.958;10.970;2023-08-07T12:43:43;11.43;;;2.55;;
39822;SDS011;25499;53.958;10.970;2023-08-07T12:46:09;8.63;;;1.60;;
39822;SDS011;25499;53.958;10.970;2023-08-07T12:48:36;11.07;;;1.90;;
39822;SDS011;25499;53.958;10.970;2023-08-07T12:51:05;9.48;;;2.13;;
39822;SDS011;25499;53.958;10.970;2023-08-07T12:53:33;7.78;;;1.60;;
39822;SDS011;25499;53.958;10.970;2023-08-07T12:55:59;10.15;;;2.13;;
39822;SDS011;25499;53.958;10.970;2023-08-07T12:58:28;11.88;;;1.77;;
39822;SDS011;25499;53.958;10.970;2023-08-07T13:00:54;10.00;;;2.08;;
39822;SDS011;25499;53.958;10.970;2023-08-07T13:03:21;8.50;;;1.58;;
39822;SDS011;25499;53.958;10.970;2023-08-07T13:05:48;6.60;;;1.25;;
39822;SDS011;25499;53.958;10.970;2023-08-07T13:08:16;14.35;;;1.75;;
39822;SDS011;25499;53.958;10.970;2023-08-07T13:10:43;6.28;;;1.85;;
39822;SDS011;25499;53.958;10.970;2023-08-07T13:13:09;8.95;;;1.70;;
39822;SDS011;25499;53.958;10.970;2023-08-07T13:15:36;7.28;;;1.70;;
39822;SDS011;25499;53.958;10.970;2023-08-07T13:18:03;6.72;;;1.48;;
39822;SDS011;25499;53.958;10.970;2023-08-07T13:20:29;16.70;;;2.17;;
39822;SDS011;25499;53.958;10.970;2023-08-07T13:22:59;5.95;;;1.30;;
39822;SDS011;25499;53.958;10.970;2023-08-07T13:25:28;9.70;;;1.88;;
39822;SDS011;25499;53.958;10.970;2023-08-07T13:27:55;8.30;;;1.50;;
39822;SDS011;25499;53.958;10.970;2023-08-07T13:30:22;5.45;;;1.60;;
39822;SDS011;25499;53.958;10.970;2023-08-07T13:32:48;7.15;;;1.77;;
39822;SDS011;25499;53.958;10.970;2023-08-07T13:35:15;9.60;;;1.50;;
39822;SDS011;25499;53.958;10.970;2023-08-07T13:37:42;9.85;;;2.17;;
39822;SDS011;25499;53.958;10.970;2023-08-07T13:40:09;7.57;;;1.65;;
39822;SDS011;25499;53.958;10.970;2023-08-07T13:42:40;12.73;;;2.40;;
39822;SDS011;25499;53.958;10.970;2023-08-07T13:45:07;11.85;;;1.73;;
39822;SDS011;25499;53.958;10.970;2023-08-07T13:47:35;5.60;;;1.98;;
39822;SDS011;25499;53.958;10.970;2023-08-07T13:50:03;6.47;;;1.50;;
39822;SDS011;25499;53.958;10.970;2023-08-07T13:52:32;11.70;;;1.90;;
39822;SDS011;25499;53.958;10.970;2023-08-07T13:54:58;6.82;;;1.83;;
39822;SDS011;25499;53.958;10.970;2023-08-07T13:57:25;6.60;;;1.52;;
39822;SDS011;25499;53.958;10.970;2023-08-07T13:59:53;10.73;;;1.77;;
39822;SDS011;25499;53.958;10.970;2023-08-07T14:02:20;10.50;;;1.90;;
39822;SDS011;25499;53.958;10.970;2023-08-07T14:04:47;5.63;;;1.45;;
39822;SDS011;25499;53.958;10.970;2023-08-07T14:07:13;10.80;;;2.17;;
39822;SDS011;25499;53.958;10.970;2023-08-07T14:09:40;5.07;;;1.50;;
39822;SDS011;25499;53.958;10.970;2023-08-07T14:12:07;6.18;;;1.80;;
39822;SDS011;25499;53.958;10.970;2023-08-07T14:14:34;9.82;;;1.48;;
39822;SDS011;25499;53.958;10.970;2023-08-07T14:17:02;9.00;;;1.70;;
39822;SDS011;25499;53.958;10.970;2023-08-07T14:19:29;9.57;;;1.80;;
39822;SDS011;25499;53.958;10.970;2023-08-07T14:21:56;9.65;;;1.65;;
39822;SDS011;25499;53.958;10.970;2023-08-07T14:24:24;10.88;;;1.83;;
39822;SDS011;25499;53.958;10.970;2023-08-07T14:26:52;8.35;;;1.45;;
39822;SDS011;25499;53.958;10.970;2023-08-07T14:29:19;10.93;;;1.92;;
39822;SDS011;25499;53.958;10.970;2023-08-07T14:31:46;11.63;;;1.85;;
39822;SDS011;25499;53.958;10.970;2023-08-07T14:34:14;13.95;;;2.10;;
39822;SDS011;25499;53.958;10.970;2023-08-07T14:36:40;8.45;;;1.33;;
39822;SDS011;25499;53.958;10.970;2023-08-07T14:39:07;7.60;;;1.67;;
39822;SDS011;25499;53.958;10.970;2023-08-07T14:41:34;11.38;;;1.67;;
39822;SDS011;25499;53.958;10.970;2023-08-07T14:44:00;5.78;;;1.55;;
39822;SDS011;25499;53.958;10.970;2023-08-07T14:46:27;6.75;;;1.88;;
39822;SDS011;25499;53.958;10.970;2023-08-07T14:48:54;9.90;;;2.08;;
39822;SDS011;25499;53.958;10.970;2023-08-07T14:51:22;6.82;;;2.10;;
39822;SDS011;25499;53.958;10.970;2023-08-07T14:53:49;10.05;;;2.50;;
39822;SDS011;25499;53.958;10.970;2023-08-07T14:56:16;11.15;;;2.40;;
39822;SDS011;25499;53.958;10.970;2023-08-07T14:58:42;12.75;;;2.50;;
39822;SDS011;25499;53.958;10.970;2023-08-07T15:01:09;8.18;;;2.35;;
39822;SDS011;25499;53.958;10.970;2023-08-07T15:06:15;10.63;;;2.42;;
39822;SDS011;25499;53.958;10.970;2023-08-07T15:08:43;11.73;;;2.30;;
39822;SDS011;25499;53.958;10.970;2023-08-07T15:11:10;14.55;;;2.63;;
39822;SDS011;25499;53.958;10.970;2023-08-07T15:13:36;11.18;;;2.42;;
39822;SDS011;25499;53.958;10.970;2023-08-07T15:16:04;13.77;;;2.35;;
39822;SDS011;25499;53.958;10.970;2023-08-07T15:18:31;9.10;;;2.55;;
39822;SDS011;25499;53.958;10.970;2023-08-07T15:20:58;9.27;;;2.50;;
39822;SDS011;25499;53.958;10.970;2023-08-07T15:23:26;11.18;;;2.60;;
39822;SDS011;25499;53.958;10.970;2023-08-07T15:25:54;11.00;;;2.15;;
39822;SDS011;25499;53.958;10.970;2023-08-07T15:28:21;14.77;;;2.60;;
39822;SDS011;25499;53.958;10.970;2023-08-07T15:30:48;11.45;;;2.33;;
39822;SDS011;25499;53.958;10.970;2023-08-07T15:33:15;8.25;;;2.00;;
39822;SDS011;25499;53.958;10.970;2023-08-07T15:35:43;10.48;;;2.40;;
39822;SDS011;25499;53.958;10.970;2023-08-07T15:38:10;11.95;;;2.00;;
39822;SDS011;25499;53.958;10.970;2023-08-07T15:40:36;9.88;;;1.85;;
39822;SDS011;25499;53.958;10.970;2023-08-07T15:43:05;10.50;;;2.13;;
39822;SDS011;25499;53.958;10.970;2023-08-07T15:45:33;12.32;;;2.10;;
39822;SDS011;25499;53.958;10.970;2023-08-07T15:47:59;14.02;;;1.75;;
39822;SDS011;25499;53.958;10.970;2023-08-07T15:50:26;11.95;;;2.10;;
39822;SDS011;25499;53.958;10.970;2023-08-07T15:52:54;13.38;;;2.30;;
39822;SDS011;25499;53.958;10.970;2023-08-07T15:55:22;8.60;;;2.05;;
39822;SDS011;25499;53.958;10.970;2023-08-07T15:57:48;8.10;;;2.20;;
39822;SDS011;25499;53.958;10.970;2023-08-07T16:00:17;13.68;;;2.58;;
39822;SDS011;25499;53.958;10.970;2023-08-07T16:02:44;13.02;;;2.17;;
39822;SDS011;25499;53.958;10.970;2023-08-07T16:05:11;12.77;;;2.35;;
39822;SDS011;25499;53.958;10.970;2023-08-07T16:07:38;11.85;;;2.00;;
39822;SDS011;25499;53.958;10.970;2023-08-07T16:10:05;8.10;;;2.00;;
39822;SDS011;25499;53.958;10.970;2023-08-07T16:12:32;15.18;;;2.35;;
39822;SDS011;25499;53.958;10.970;2023-08-07T16:14:59;10.85;;;2.50;;
39822;SDS011;25499;53.958;10.970;2023-08-07T16:17:28;13.90;;;2.15;;
39822;SDS011;25499;53.958;10.970;2023-08-07T16:19:56;7.88;;;2.10;;
39822;SDS011;25499;53.958;10.970;2023-08-07T16:22:22;7.00;;;1.90;;
39822;SDS011;25499;53.958;10.970;2023-08-07T16:24:49;11.55;;;2.08;;
39822;SDS011;25499;53.958;10.970;2023-08-07T16:27:16;11.95;;;1.98;;
39822;SDS011;25499;53.958;10.970;2023-08-07T16:29:43;13.38;;;2.40;;
39822;SDS011;25499;53.958;10.970;2023-08-07T16:32:09;14.35;;;2.20;;
39822;SDS011;25499;53.958;10.970;2023-08-07T16:34:37;6.40;;;1.85;;
39822;SDS011;25499;53.958;10.970;2023-08-07T16:37:04;12.38;;;2.40;;
39822;SDS011;25499;53.958;10.970;2023-08-07T16:39:31;13.18;;;2.20;;
39822;SDS011;25499;53.958;10.970;2023-08-07T16:41:58;13.55;;;2.67;;
39822;SDS011;25499;53.958;10.970;2023-08-07T16:44:25;9.85;;;2.67;;
39822;SDS011;25499;53.958;10.970;2023-08-07T16:46:51;12.45;;;2.60;;
39822;SDS011;25499;53.958;10.970;2023-08-07T16:49:18;13.27;;;2.58;;
39822;SDS011;25499;53.958;10.970;2023-08-07T16:51:46;17.98;;;2.97;;
39822;SDS011;25499;53.958;10.970;2023-08-07T16:54:13;12.85;;;2.28;;
39822;SDS011;25499;53.958;10.970;2023-08-07T16:56:40;15.18;;;2.50;;
39822;SDS011;25499;53.958;10.970;2023-08-07T16:59:07;13.75;;;2.85;;
39822;SDS011;25499;53.958;10.970;2023-08-07T17:01:33;16.60;;;2.35;;
39822;SDS011;25499;53.958;10.970;2023-08-07T17:04:00;19.17;;;2.63;;
39822;SDS011;25499;53.958;10.970;2023-08-07T17:06:27;12.02;;;2.85;;
39822;SDS011;25499;53.958;10.970;2023-08-07T17:08:56;11.73;;;2.10;;
39822;SDS011;25499;53.958;10.970;2023-08-07T17:11:22;11.32;;;2.33;;
39822;SDS011;25499;53.958;10.970;2023-08-07T17:13:53;9.93;;;2.10;;
39822;SDS011;25499;53.958;10.970;2023-08-07T17:16:20;11.68;;;2.55;;
39822;SDS011;25499;53.958;10.970;2023-08-07T17:18:46;11.82;;;2.10;;
39822;SDS011;25499;53.958;10.970;2023-08-07T17:21:13;12.52;;;2.30;;
39822;SDS011;25499;53.958;10.970;2023-08-07T17:23:40;15.60;;;2.25;;
39822;SDS011;25499;53.958;10.970;2023-08-07T17:26:08;10.90;;;2.78;;
39822;SDS011;25499;53.958;10.970;2023-08-07T17:28:35;10.32;;;1.90;;
39822;SDS011;25499;53.958;10.970;2023-08-07T17:31:02;12.98;;;2.20;;
39822;SDS011;25499;53.958;10.970;2023-08-07T17:33:30;8.95;;;2.00;;
39822;SDS011;25499;53.958;10.970;2023-08-07T17:35:58;10.43;;;2.22;;
39822;SDS011;25499;53.958;10.970;2023-08-07T17:38:25;17.17;;;2.30;;
39822;SDS011;25499;53.958;10.970;2023-08-07T17:40:52;12.05;;;2.22;;
39822;SDS011;25499;53.958;10.970;2023-08-07T17:43:20;12.40;;;2.90;;
39822;SDS011;25499;53.958;10.970;2023-08-07T17:45:47;13.38;;;2.50;;
39822;SDS011;25499;53.958;10.970;2023-08-07T17:48:14;12.30;;;2.50;;
39822;SDS011;25499;53.958;10.970;2023-08-07T17:50:41;10.20;;;2.50;;
39822;SDS011;25499;53.958;10.970;2023-08-07T17:53:07;13.10;;;2.60;;
39822;SDS011;25499;53.958;10.970;2023-08-07T17:55:34;16.65;;;2.90;;
39822;SDS011;25499;53.958;10.970;2023-08-07T17:58:01;24.45;;;2.85;;
39822;SDS011;25499;53.958;10.970;2023-08-07T18:00:29;18.20;;;2.63;;
39822;SDS011;25499;53.958;10.970;2023-08-07T18:02:56;13.30;;;3.03;;
39822;SDS011;25499;53.958;10.970;2023-08-07T18:05:22;11.75;;;2.83;;
39822;SDS011;25499;53.958;10.970;2023-08-07T18:07:49;11.60;;;2.80;;
39822;SDS011;25499;53.958;10.970;2023-08-07T18:10:16;14.88;;;3.60;;
39822;SDS011;25499;53.958;10.970;2023-08-07T18:12:43;11.52;;;3.10;;
39822;SDS011;25499;53.958;10.970;2023-08-07T18:15:10;15.38;;;2.80;;
39822;SDS011;25499;53.958;10.970;2023-08-07T18:17:38;10.45;;;2.90;;
39822;SDS011;25499;53.958;10.970;2023-08-07T18:20:05;15.10;;;2.83;;
39822;SDS011;25499;53.958;10.970;2023-08-07T18:22:33;14.88;;;2.70;;
39822;SDS011;25499;53.958;10.970;2023-08-07T18:25:00;11.25;;;2.28;;
39822;SDS011;25499;53.958;10.970;2023-08-07T18:27:26;15.07;;;2.78;;
39822;SDS011;25499;53.958;10.970;2023-08-07T18:29:53;10.73;;;2.83;;
39822;SDS011;25499;53.958;10.970;2023-08-07T18:32:20;13.02;;;2.33;;
39822;SDS011;25499;53.958;10.970;2023-08-07T18:34:48;14.68;;;2.30;;
39822;SDS011;25499;53.958;10.970;2023-08-07T18:37:15;9.18;;;2.63;;
39822;SDS011;25499;53.958;10.970;2023-08-07T18:39:42;11.05;;;2.22;;
39822;SDS011;25499;53.958;10.970;2023-08-07T18:42:08;11.55;;;2.42;;
39822;SDS011;25499;53.958;10.970;2023-08-07T18:44:35;12.60;;;2.53;;
39822;SDS011;25499;53.958;10.970;2023-08-07T18:47:02;8.98;;;2.40;;
39822;SDS011;25499;53.958;10.970;2023-08-07T18:49:29;11.00;;;2.30;;
39822;SDS011;25499;53.958;10.970;2023-08-07T18:51:57;12.38;;;2.20;;
39822;SDS011;25499;53.958;10.970;2023-08-07T18:54:25;8.48;;;1.98;;
39822;SDS011;25499;53.958;10.970;2023-08-07T18:56:52;12.05;;;2.15;;
39822;SDS011;25499;53.958;10.970;2023-08-07T18:59:18;14.65;;;2.13;;
39822;SDS011;25499;53.958;10.970;2023-08-07T19:01:45;8.60;;;1.92;;
39822;SDS011;25499;53.958;10.970;2023-08-07T19:04:12;9.65;;;1.80;;
39822;SDS011;25499;53.958;10.970;2023-08-07T19:06:39;11.73;;;2.50;;
39822;SDS011;25499;53.958;10.970;2023-08-07T19:09:09;13.15;;;2.55;;
39822;SDS011;25499;53.958;10.970;2023-08-07T19:11:36;10.00;;;2.10;;
39822;SDS011;25499;53.958;10.970;2023-08-07T19:14:02;10.70;;;2.30;;
39822;SDS011;25499;53.958;10.970;2023-08-07T19:16:30;10.88;;;2.58;;
39822;SDS011;25499;53.958;10.970;2023-08-07T19:18:57;9.25;;;2.47;;
39822;SDS011;25499;53.958;10.970;2023-08-07T19:21:24;10.82;;;2.10;;
39822;SDS011;25499;53.958;10.970;2023-08-07T19:23:51;14.40;;;3.45;;
39822;SDS011;25499;53.958;10.970;2023-08-07T19:26:19;14.75;;;2.75;;
39822;SDS011;25499;53.958;10.970;2023-08-07T19:28:45;10.75;;;2.83;;
39822;SDS011;25499;53.958;10.970;2023-08-07T19:31:12;6.63;;;2.10;;
39822;SDS011;25499;53.958;10.970;2023-08-07T19:33:39;8.93;;;1.95;;
39822;SDS011;25499;53.958;10.970;2023-08-07T19:36:06;17.48;;;3.45;;
39822;SDS011;25499;53.958;10.970;2023-08-07T19:38:32;9.15;;;2.50;;
39822;SDS011;25499;53.958;10.970;2023-08-07T19:40:59;8.70;;;2.00;;
39822;SDS011;25499;53.958;10.970;2023-08-07T19:43:27;7.32;;;2.22;;
39822;SDS011;25499;53.958;10.970;2023-08-07T19:45:54;12.50;;;2.60;;
39822;SDS011;25499;53.958;10.970;2023-08-07T19:48:21;13.68;;;2.50;;
39822;SDS011;25499;53.958;10.970;2023-08-07T19:50:50;14.77;;;2.10;;
39822;SDS011;25499;53.958;10.970;2023-08-07T19:53:17;9.52;;;2.75;;
39822;SDS011;25499;53.958;10.970;2023-08-07T19:55:44;12.65;;;2.80;;
39822;SDS011;25499;53.958;10.970;2023-08-07T19:58:11;11.82;;;2.80;;
